createdAt,value
2018-05-01T00:00:48.944Z,10.8
2018-05-01T00:01:51.339Z,10.7
2018-05-01T00:02:53.715Z,10.7
2018-05-01T00:03:56.104Z,10.7
2018-05-01T00:04:58.487Z,10.6
2018-05-01T00:06:00.873Z,10.6
2018-05-01T00:07:03.254Z,10.6
2018-05-01T00:08:05.921Z,10.5
2018-05-01T00:09:08.300Z,10.5
2018-05-01T00:10:11.068Z,10.5
2018-05-01T00:11:13.459Z,10.4
2018-05-01T00:12:15.839Z,10.4
2018-05-01T00:13:18.225Z,10.4
2018-05-01T00:14:20.614Z,10.4
2018-05-01T00:15:23.265Z,10.3
2018-05-01T00:16:25.646Z,10.4
2018-05-01T00:17:28.045Z,10.3
2018-05-01T00:18:30.422Z,10.3
2018-05-01T00:19:32.793Z,10.3
2018-05-01T00:20:35.164Z,10.3
2018-05-01T00:21:37.549Z,10.3
2018-05-01T00:22:39.932Z,10.2
2018-05-01T00:23:42.337Z,10.2
2018-05-01T00:24:44.712Z,10.2
2018-05-01T00:25:47.092Z,10.2
2018-05-01T00:26:49.485Z,10.2
2018-05-01T00:27:51.866Z,10.2
2018-05-01T00:28:54.244Z,10.2
2018-05-01T00:29:56.624Z,10.2
2018-05-01T00:30:59.002Z,10.2
2018-05-01T00:32:01.975Z,10.2
2018-05-01T00:33:04.356Z,10.2
2018-05-01T00:34:07.022Z,10.2
2018-05-01T00:35:09.683Z,10.1
2018-05-01T00:36:12.072Z,10.1
2018-05-01T00:37:14.729Z,10.1
2018-05-01T00:38:18.070Z,10.1
2018-05-01T00:39:20.436Z,10.1
2018-05-01T00:40:23.208Z,10.2
2018-05-01T00:41:25.596Z,10.2
2018-05-01T00:42:27.976Z,10.2
2018-05-01T00:43:31.068Z,10.2
2018-05-01T00:44:33.405Z,10.2
2018-05-01T00:45:35.790Z,10.2
2018-05-01T00:46:38.170Z,10.2
2018-05-01T00:47:40.545Z,10.2
2018-05-01T00:48:42.936Z,10.3
2018-05-01T00:49:45.316Z,10.2
2018-05-01T00:50:47.684Z,10.3
2018-05-01T00:51:50.141Z,10.3
2018-05-01T00:52:52.460Z,10.4
2018-05-01T00:53:54.850Z,10.4
2018-05-01T00:54:57.229Z,10.4
2018-05-01T00:55:59.602Z,10.5
2018-05-01T00:57:01.979Z,10.5
2018-05-01T00:58:04.383Z,10.4
2018-05-01T00:59:06.758Z,10.4
2018-05-01T01:00:09.129Z,10.4
2018-05-01T01:01:11.512Z,10.5
2018-05-01T01:02:14.194Z,10.5
2018-05-01T01:03:16.861Z,10.5
2018-05-01T01:04:19.242Z,10.5
2018-05-01T01:05:21.612Z,10.5
2018-05-01T01:06:24.378Z,10.5
2018-05-01T01:07:26.765Z,10.5
2018-05-01T01:08:29.150Z,10.5
2018-05-01T01:09:31.813Z,10.4
2018-05-01T01:10:34.195Z,10.4
2018-05-01T01:11:36.575Z,10.4
2018-05-01T01:12:38.970Z,10.4
2018-05-01T01:13:41.344Z,10.4
2018-05-01T01:14:43.716Z,10.3
2018-05-01T01:15:46.094Z,10.3
2018-05-01T01:16:48.756Z,10.3
2018-05-01T01:17:51.139Z,10.3
2018-05-01T01:18:53.519Z,10.3
2018-05-01T01:19:55.900Z,10.2
2018-05-01T01:20:58.290Z,10.2
2018-05-01T01:22:01.330Z,10.2
2018-05-01T01:23:03.721Z,10.2
2018-05-01T01:24:06.377Z,10.2
2018-05-01T01:25:08.759Z,10.1
2018-05-01T01:26:11.138Z,10.1
2018-05-01T01:27:13.804Z,10.1
2018-05-01T01:28:16.472Z,10.1
2018-05-01T01:29:18.856Z,10.1
2018-05-01T01:30:21.230Z,10
2018-05-01T01:31:23.615Z,10
2018-05-01T01:32:26.282Z,10
2018-05-01T01:33:28.658Z,10
2018-05-01T01:34:31.038Z,10
2018-05-01T01:35:33.422Z,10
2018-05-01T01:36:35.798Z,9.9
2018-05-01T01:37:38.194Z,9.9
2018-05-01T01:38:40.562Z,9.9
2018-05-01T01:39:42.964Z,9.9
2018-05-01T01:40:45.345Z,9.9
2018-05-01T01:41:47.730Z,9.8
2018-05-01T01:42:50.112Z,9.8
2018-05-01T01:43:52.492Z,9.8
2018-05-01T01:44:55.253Z,9.8
2018-05-01T01:45:57.633Z,9.7
2018-05-01T01:47:00.014Z,9.7
2018-05-01T01:48:02.410Z,9.7
2018-05-01T01:49:04.793Z,9.7
2018-05-01T01:50:07.169Z,9.7
2018-05-01T01:51:09.547Z,9.8
2018-05-01T01:52:12.217Z,9.8
2018-05-01T01:53:14.601Z,9.8
2018-05-01T01:54:17.269Z,9.7
2018-05-01T01:55:19.643Z,9.8
2018-05-01T01:56:22.026Z,9.8
2018-05-01T01:57:24.411Z,9.9
2018-05-01T01:58:26.793Z,9.9
2018-05-01T01:59:29.460Z,9.9
2018-05-01T02:00:31.836Z,10
2018-05-01T02:01:34.217Z,10.1
2018-05-01T02:02:37.239Z,10.1
2018-05-01T02:03:39.624Z,10.1
2018-05-01T02:04:41.994Z,10.1
2018-05-01T02:05:44.756Z,10.1
2018-05-01T02:06:47.150Z,10.2
2018-05-01T02:07:49.815Z,10.3
2018-05-01T02:08:52.471Z,10.4
2018-05-01T02:09:54.863Z,10.4
2018-05-01T02:10:57.518Z,10.4
2018-05-01T02:11:59.909Z,10.4
2018-05-01T02:13:02.296Z,10.4
2018-05-01T02:14:04.669Z,10.4
2018-05-01T02:15:07.337Z,10.5
2018-05-01T02:16:09.722Z,10.6
2018-05-01T02:17:12.108Z,10.6
2018-05-01T02:18:14.483Z,10.6
2018-05-01T02:19:16.887Z,10.6
2018-05-01T02:20:19.622Z,10.6
2018-05-01T02:21:21.915Z,10.6
2018-05-01T02:22:24.293Z,10.7
2018-05-01T02:23:26.665Z,10.6
2018-05-01T02:24:29.050Z,10.7
2018-05-01T02:25:31.433Z,10.7
2018-05-01T02:26:33.809Z,10.7
2018-05-01T02:27:36.197Z,10.7
2018-05-01T02:28:38.975Z,10.7
2018-05-01T02:29:41.355Z,10.7
2018-05-01T02:30:43.747Z,10.6
2018-05-01T02:31:46.127Z,10.6
2018-05-01T02:32:48.895Z,10.6
2018-05-01T02:33:51.636Z,10.6
2018-05-01T02:34:54.245Z,10.5
2018-05-01T02:35:56.621Z,10.5
2018-05-01T02:36:59.575Z,10.5
2018-05-01T02:38:01.942Z,10.5
2018-05-01T02:39:04.342Z,10.5
2018-05-01T02:40:07.384Z,10.5
2018-05-01T02:41:09.791Z,10.5
2018-05-01T02:42:13.221Z,10.5
2018-05-01T02:43:15.597Z,10.5
2018-05-01T02:44:18.274Z,10.5
2018-05-01T02:45:20.942Z,10.5
2018-05-01T02:46:23.996Z,10.6
2018-05-01T02:47:26.945Z,10.6
2018-05-01T02:48:29.606Z,10.6
2018-05-01T02:49:32.549Z,10.6
2018-05-01T02:50:35.210Z,10.6
2018-05-01T02:51:37.863Z,10.6
2018-05-01T02:52:41.092Z,10.6
2018-05-01T02:53:43.778Z,10.6
2018-05-01T02:54:46.441Z,10.6
2018-05-01T02:55:48.833Z,10.6
2018-05-01T02:56:51.221Z,10.7
2018-05-01T02:57:53.608Z,10.8
2018-05-01T02:58:55.996Z,10.8
2018-05-01T02:59:58.376Z,10.8
2018-05-01T03:01:01.055Z,10.8
2018-05-01T03:02:04.148Z,10.8
2018-05-01T03:03:07.477Z,10.8
2018-05-01T03:04:10.148Z,10.8
2018-05-01T03:05:12.798Z,10.8
2018-05-01T03:06:15.564Z,10.8
2018-05-01T03:07:17.947Z,10.8
2018-05-01T03:08:20.998Z,10.9
2018-05-01T03:09:23.665Z,10.8
2018-05-01T03:10:26.059Z,10.8
2018-05-01T03:11:29.010Z,10.9
2018-05-01T03:12:31.794Z,10.9
2018-05-01T03:13:34.841Z,10.9
2018-05-01T03:14:37.804Z,10.9
2018-05-01T03:15:40.197Z,10.9
2018-05-01T03:16:42.570Z,11
2018-05-01T03:17:44.961Z,11
2018-05-01T03:18:47.359Z,11
2018-05-01T03:19:50.032Z,11.1
2018-05-01T03:20:52.409Z,11
2018-05-01T03:21:54.796Z,11
2018-05-01T03:22:57.170Z,11.1
2018-05-01T03:23:59.559Z,11.1
2018-05-01T03:25:01.939Z,11.1
2018-05-01T03:26:04.306Z,11.1
2018-05-01T03:27:06.977Z,11.1
2018-05-01T03:28:09.976Z,11.1
2018-05-01T03:29:12.358Z,11.1
2018-05-01T03:30:15.124Z,11.1
2018-05-01T03:31:18.063Z,11.1
2018-05-01T03:32:20.437Z,11.1
2018-05-01T03:33:22.817Z,11.1
2018-05-01T03:34:25.484Z,11.1
2018-05-01T03:35:27.877Z,11.1
2018-05-01T03:36:30.543Z,11.1
2018-05-01T03:37:33.857Z,11.1
2018-05-01T03:38:36.524Z,11.1
2018-05-01T03:39:38.913Z,11.1
2018-05-01T03:40:41.301Z,11.1
2018-05-01T03:41:43.678Z,11.2
2018-05-01T03:42:46.065Z,11.2
2018-05-01T03:43:48.722Z,11.2
2018-05-01T03:44:51.112Z,11.2
2018-05-01T03:45:54.071Z,11.3
2018-05-01T03:46:56.449Z,11.3
2018-05-01T03:47:58.834Z,11.3
2018-05-01T03:49:01.218Z,11.3
2018-05-01T03:50:03.593Z,11.3
2018-05-01T03:51:05.993Z,11.3
2018-05-01T03:52:08.369Z,11.4
2018-05-01T03:53:11.344Z,11.4
2018-05-01T03:54:13.723Z,11.4
2018-05-01T03:55:16.104Z,11.4
2018-05-01T03:56:18.489Z,11.4
2018-05-01T03:57:20.870Z,11.5
2018-05-01T03:58:23.533Z,11.5
2018-05-01T03:59:25.920Z,11.4
2018-05-01T04:00:28.298Z,11.4
2018-05-01T04:01:30.956Z,11.5
2018-05-01T04:02:33.346Z,11.5
2018-05-01T04:03:35.733Z,11.4
2018-05-01T04:04:38.118Z,11.4
2018-05-01T04:05:40.775Z,11.5
2018-05-01T04:06:43.435Z,11.5
2018-05-01T04:07:46.108Z,11.5
2018-05-01T04:08:48.483Z,11.5
2018-05-01T04:09:50.870Z,11.6
2018-05-01T04:10:53.242Z,11.6
2018-05-01T04:11:55.618Z,11.6
2018-05-01T04:12:58.000Z,11.5
2018-05-01T04:14:00.377Z,11.5
2018-05-01T04:15:02.752Z,11.5
2018-05-01T04:16:05.701Z,11.5
2018-05-01T04:17:08.085Z,11.5
2018-05-01T04:18:10.540Z,11.5
2018-05-01T04:19:13.199Z,11.5
2018-05-01T04:20:15.584Z,11.5
2018-05-01T04:21:17.958Z,11.6
2018-05-01T04:22:20.397Z,11.6
2018-05-01T04:23:22.775Z,11.6
2018-05-01T04:24:25.156Z,11.5
2018-05-01T04:25:27.659Z,11.5
2018-05-01T04:26:29.934Z,11.5
2018-05-01T04:27:32.597Z,11.5
2018-05-01T04:28:35.023Z,11.5
2018-05-01T04:29:37.356Z,11.5
2018-05-01T04:30:39.733Z,11.5
2018-05-01T04:31:42.120Z,11.5
2018-05-01T04:32:44.785Z,11.5
2018-05-01T04:33:47.452Z,11.5
2018-05-01T04:34:49.858Z,11.5
2018-05-01T04:35:52.226Z,11.5
2018-05-01T04:36:54.611Z,11.5
2018-05-01T04:37:56.987Z,11.5
2018-05-01T04:38:59.362Z,11.4
2018-05-01T04:40:01.746Z,11.4
2018-05-01T04:41:04.515Z,11.4
2018-05-01T04:42:06.894Z,11.4
2018-05-01T04:43:09.286Z,11.3
2018-05-01T04:44:11.951Z,11.2
2018-05-01T04:45:14.340Z,11.2
2018-05-01T04:46:16.719Z,11.1
2018-05-01T04:47:19.106Z,11.1
2018-05-01T04:48:21.493Z,11.1
2018-05-01T04:49:23.873Z,11.1
2018-05-01T04:50:26.254Z,11
2018-05-01T04:51:28.629Z,10.9
2018-05-01T04:52:31.009Z,10.9
2018-05-01T04:53:33.388Z,10.9
2018-05-01T04:54:36.061Z,10.9
2018-05-01T04:55:38.439Z,10.9
2018-05-01T04:56:40.821Z,10.8
2018-05-01T04:57:43.207Z,10.8
2018-05-01T04:58:45.596Z,10.8
2018-05-01T04:59:48.367Z,10.8
2018-05-01T05:00:50.737Z,10.8
2018-05-01T05:01:53.123Z,10.7
2018-05-01T05:02:55.516Z,10.7
2018-05-01T05:03:58.959Z,10.8
2018-05-01T05:05:01.340Z,10.8
2018-05-01T05:06:03.718Z,10.7
2018-05-01T05:07:06.094Z,10.8
2018-05-01T05:08:08.482Z,10.7
2018-05-01T05:09:10.873Z,10.8
2018-05-01T05:10:13.540Z,10.8
2018-05-01T05:11:15.928Z,10.7
2018-05-01T05:12:18.310Z,10.7
2018-05-01T05:13:20.684Z,10.7
2018-05-01T05:14:23.070Z,10.8
2018-05-01T05:15:25.464Z,10.8
2018-05-01T05:16:27.843Z,10.7
2018-05-01T05:17:30.226Z,10.7
2018-05-01T05:18:32.603Z,10.8
2018-05-01T05:19:34.975Z,10.8
2018-05-01T05:20:37.357Z,10.8
2018-05-01T05:21:40.023Z,10.8
2018-05-01T05:22:42.390Z,10.8
2018-05-01T05:23:45.060Z,10.9
2018-05-01T05:24:47.445Z,10.8
2018-05-01T05:25:49.828Z,10.9
2018-05-01T05:26:52.225Z,10.9
2018-05-01T05:27:54.891Z,10.9
2018-05-01T05:28:57.272Z,10.8
2018-05-01T05:29:59.651Z,10.9
2018-05-01T05:31:02.314Z,10.9
2018-05-01T05:32:04.984Z,11
2018-05-01T05:33:07.815Z,11
2018-05-01T05:34:10.214Z,11
2018-05-01T05:35:12.589Z,11
2018-05-01T05:36:14.996Z,11.1
2018-05-01T05:37:17.351Z,11.1
2018-05-01T05:38:19.734Z,11.1
2018-05-01T05:39:22.117Z,11
2018-05-01T05:40:24.510Z,11.1
2018-05-01T05:41:26.880Z,11.1
2018-05-01T05:42:29.268Z,11.1
2018-05-01T05:43:31.646Z,11.1
2018-05-01T05:44:34.026Z,11.1
2018-05-01T05:45:36.687Z,11.1
2018-05-01T05:46:39.359Z,11.1
2018-05-01T05:47:41.735Z,11.1
2018-05-01T05:48:44.136Z,11.1
2018-05-01T05:49:46.783Z,11.1
2018-05-01T05:50:49.175Z,11.1
2018-05-01T05:51:51.559Z,11.1
2018-05-01T05:52:53.943Z,11.1
2018-05-01T05:53:56.325Z,11.1
2018-05-01T05:54:58.709Z,11.1
2018-05-01T05:56:01.375Z,11.1
2018-05-01T05:57:03.763Z,11.1
2018-05-01T05:58:06.135Z,11.2
2018-05-01T05:59:08.803Z,11.2
2018-05-01T06:00:11.190Z,11.2
2018-05-01T06:01:13.638Z,11.2
2018-05-01T06:02:15.956Z,11.2
2018-05-01T06:03:18.339Z,11.2
2018-05-01T06:04:20.706Z,11.2
2018-05-01T06:05:23.106Z,11.1
2018-05-01T06:06:25.491Z,11.1
2018-05-01T06:07:27.874Z,11.1
2018-05-01T06:08:30.647Z,11.1
2018-05-01T06:09:33.029Z,11.1
2018-05-01T06:10:35.413Z,11.1
2018-05-01T06:11:37.801Z,11.1
2018-05-01T06:12:40.180Z,11.1
2018-05-01T06:13:42.653Z,11.1
2018-05-01T06:14:44.930Z,11.1
2018-05-01T06:15:47.321Z,11.1
2018-05-01T06:16:49.707Z,11.1
2018-05-01T06:17:52.090Z,11.1
2018-05-01T06:18:54.759Z,11
2018-05-01T06:19:57.421Z,11.1
2018-05-01T06:20:59.807Z,11.1
2018-05-01T06:22:02.515Z,11.1
2018-05-01T06:23:06.128Z,11.1
2018-05-01T06:24:08.494Z,11
2018-05-01T06:25:11.167Z,11
2018-05-01T06:26:13.545Z,11
2018-05-01T06:27:15.950Z,11
2018-05-01T06:28:18.335Z,11
2018-05-01T06:29:20.708Z,11
2018-05-01T06:30:23.090Z,11.1
2018-05-01T06:31:25.912Z,11.1
2018-05-01T06:32:28.281Z,11
2018-05-01T06:33:30.657Z,11
2018-05-01T06:34:33.429Z,11
2018-05-01T06:35:35.807Z,11
2018-05-01T06:36:38.200Z,11
2018-05-01T06:37:40.580Z,11
2018-05-01T06:38:42.954Z,10.9
2018-05-01T06:39:45.342Z,11
2018-05-01T06:40:47.722Z,11.1
2018-05-01T06:41:50.105Z,11.1
2018-05-01T06:42:52.485Z,11.1
2018-05-01T06:43:55.215Z,11.2
2018-05-01T06:44:57.858Z,11.2
2018-05-01T06:46:00.565Z,11.1
2018-05-01T06:47:03.494Z,11.1
2018-05-01T06:48:05.883Z,11.1
2018-05-01T06:49:08.264Z,11
2018-05-01T06:50:10.932Z,11
2018-05-01T06:51:13.306Z,10.9
2018-05-01T06:52:15.686Z,10.9
2018-05-01T06:53:18.070Z,10.9
2018-05-01T06:54:20.447Z,10.9
2018-05-01T06:55:23.221Z,10.9
2018-05-01T06:56:25.602Z,11
2018-05-01T06:57:27.978Z,11.1
2018-05-01T06:58:30.355Z,11.2
2018-05-01T06:59:32.741Z,11.2
2018-05-01T07:00:35.122Z,11.2
2018-05-01T07:01:37.496Z,11.2
2018-05-01T07:02:40.265Z,11.1
2018-05-01T07:03:42.651Z,11
2018-05-01T07:04:45.330Z,11
2018-05-01T07:05:47.716Z,11.1
2018-05-01T07:06:50.482Z,11.1
2018-05-01T07:07:53.156Z,11
2018-05-01T07:08:55.544Z,11
2018-05-01T07:09:57.984Z,11
2018-05-01T07:11:00.647Z,11.1
2018-05-01T07:12:03.045Z,11.1
2018-05-01T07:13:05.431Z,11.1
2018-05-01T07:14:07.798Z,11
2018-05-01T07:15:10.198Z,11
2018-05-01T07:16:12.979Z,10.8
2018-05-01T07:17:15.376Z,10.7
2018-05-01T07:18:17.754Z,10.7
2018-05-01T07:19:20.133Z,10.7
2018-05-01T07:20:22.521Z,10.6
2018-05-01T07:21:24.916Z,10.5
2018-05-01T07:22:27.296Z,10.5
2018-05-01T07:23:29.678Z,10.5
2018-05-01T07:24:32.060Z,10.5
2018-05-01T07:25:34.446Z,10.4
2018-05-01T07:26:36.835Z,10.4
2018-05-01T07:27:39.601Z,10.5
2018-05-01T07:28:41.977Z,10.5
2018-05-01T07:29:44.364Z,10.4
2018-05-01T07:30:46.752Z,10.4
2018-05-01T07:31:49.138Z,10.4
2018-05-01T07:32:51.517Z,10.3
2018-05-01T07:33:54.190Z,10.4
2018-05-01T07:34:56.576Z,10.3
2018-05-01T07:35:58.972Z,10.3
2018-05-01T07:37:01.625Z,10.3
2018-05-01T07:38:04.008Z,10.3
2018-05-01T07:39:06.394Z,10.2
2018-05-01T07:40:08.776Z,10.2
2018-05-01T07:41:11.168Z,10.2
2018-05-01T07:42:13.843Z,10.2
2018-05-01T07:43:16.224Z,10.3
2018-05-01T07:44:18.603Z,10.3
2018-05-01T07:45:20.994Z,10.3
2018-05-01T07:46:23.372Z,10.4
2018-05-01T07:47:26.026Z,10.3
2018-05-01T07:48:28.412Z,10.4
2018-05-01T07:49:30.800Z,10.3
2018-05-01T07:50:33.185Z,10.4
2018-05-01T07:51:36.255Z,10.3
2018-05-01T07:52:38.637Z,10.3
2018-05-01T07:53:41.023Z,10.4
2018-05-01T07:54:43.420Z,10.4
2018-05-01T07:55:45.793Z,10.3
2018-05-01T07:56:48.269Z,10.3
2018-05-01T07:57:50.716Z,10.3
2018-05-01T07:58:53.100Z,10.3
2018-05-01T07:59:55.493Z,10.3
2018-05-01T08:00:57.883Z,10.3
2018-05-01T08:02:00.327Z,10.3
2018-05-01T08:03:02.734Z,10.3
2018-05-01T08:04:05.399Z,10.3
2018-05-01T08:05:07.776Z,10.4
2018-05-01T08:06:10.160Z,10.4
2018-05-01T08:07:12.535Z,10.4
2018-05-01T08:08:14.913Z,10.4
2018-05-01T08:09:17.595Z,10.3
2018-05-01T08:10:19.966Z,10.3
2018-05-01T08:11:22.617Z,10.3
2018-05-01T08:12:25.007Z,10.3
2018-05-01T08:13:27.395Z,10.3
2018-05-01T08:14:30.342Z,10.2
2018-05-01T08:15:32.718Z,10.2
2018-05-01T08:16:35.106Z,10.2
2018-05-01T08:17:37.480Z,10.3
2018-05-01T08:18:39.953Z,10.3
2018-05-01T08:19:42.252Z,10.3
2018-05-01T08:20:44.917Z,10.3
2018-05-01T08:21:47.293Z,10.3
2018-05-01T08:22:49.679Z,10.3
2018-05-01T08:23:52.364Z,10.2
2018-05-01T08:24:54.923Z,10.2
2018-05-01T08:25:57.287Z,10.2
2018-05-01T08:26:59.679Z,10.3
2018-05-01T08:28:02.060Z,10.1
2018-05-01T08:29:04.443Z,10.2
2018-05-01T08:30:06.827Z,10.1
2018-05-01T08:31:09.206Z,10.1
2018-05-01T08:32:11.621Z,10.1
2018-05-01T08:33:14.252Z,10.2
2018-05-01T08:34:16.624Z,10.2
2018-05-01T08:35:19.296Z,10.2
2018-05-01T08:36:21.676Z,10.2
2018-05-01T08:37:24.064Z,10.2
2018-05-01T08:38:26.448Z,10.2
2018-05-01T08:39:28.859Z,10.1
2018-05-01T08:40:31.250Z,10.1
2018-05-01T08:41:33.711Z,10.1
2018-05-01T08:42:36.080Z,10.1
2018-05-01T08:43:38.456Z,10.1
2018-05-01T08:44:40.833Z,10.1
2018-05-01T08:45:43.571Z,10.1
2018-05-01T08:46:45.949Z,10
2018-05-01T08:47:48.438Z,10.1
2018-05-01T08:48:50.817Z,10
2018-05-01T08:49:53.472Z,10.1
2018-05-01T08:50:56.141Z,10
2018-05-01T08:51:58.804Z,10.1
2018-05-01T08:53:01.180Z,10.1
2018-05-01T08:54:03.577Z,10.1
2018-05-01T08:55:05.955Z,10.1
2018-05-01T08:56:08.339Z,10.1
2018-05-01T08:57:10.717Z,10.1
2018-05-01T08:58:13.106Z,10.1
2018-05-01T08:59:15.486Z,10.1
2018-05-01T09:00:18.149Z,10.1
2018-05-01T09:01:20.527Z,10.1
2018-05-01T09:02:22.917Z,10.1
2018-05-01T09:03:25.288Z,10.1
2018-05-01T09:04:27.952Z,10
2018-05-01T09:05:30.395Z,10
2018-05-01T09:06:32.743Z,10
2018-05-01T09:07:35.125Z,10
2018-05-01T09:08:37.528Z,10
2018-05-01T09:09:39.908Z,9.9
2018-05-01T09:10:42.830Z,9.9
2018-05-01T09:11:45.894Z,9.9
2018-05-01T09:12:51.229Z,9.9
2018-05-01T09:13:56.701Z,9.9
2018-05-01T09:15:01.433Z,9.9
2018-05-01T09:16:05.664Z,9.9
2018-05-01T09:17:13.455Z,9.9
2018-05-01T09:18:22.845Z,9.9
2018-05-01T09:19:31.527Z,9.9
2018-05-01T09:20:43.212Z,9.8
2018-05-01T09:21:53.423Z,9.9
2018-05-01T09:23:04.998Z,9.9
2018-05-01T09:24:15.588Z,9.9
2018-05-01T09:25:26.793Z,9.9
2018-05-01T09:26:37.678Z,9.9
2018-05-01T09:27:46.729Z,9.8
2018-05-01T09:28:56.227Z,9.8
2018-05-01T09:30:04.220Z,9.9
2018-05-01T09:31:16.437Z,9.8
2018-05-01T09:32:30.384Z,9.8
2018-05-01T09:33:45.495Z,9.8
2018-05-01T09:35:01.205Z,9.8
2018-05-01T09:36:12.100Z,9.8
2018-05-01T09:37:28.739Z,9.8
2018-05-01T09:38:44.326Z,9.8
2018-05-01T09:39:55.709Z,9.8
2018-05-01T09:41:07.375Z,9.8
2018-05-01T09:42:27.981Z,9.8
2018-05-01T09:43:37.760Z,9.8
2018-05-01T09:44:56.342Z,9.8
2018-05-01T09:46:07.191Z,9.8
2018-05-01T09:47:18.082Z,9.8
2018-05-01T09:48:30.223Z,9.8
2018-05-01T09:49:47.434Z,9.8
2018-05-01T09:51:07.310Z,9.8
2018-05-01T09:52:23.301Z,9.8
2018-05-01T09:53:40.315Z,9.8
2018-05-01T09:55:12.826Z,9.8
2018-05-01T09:56:31.351Z,9.9
2018-05-01T09:57:56.066Z,9.8
2018-05-01T09:59:12.862Z,9.8
2018-05-01T10:00:25.527Z,9.8
2018-05-01T10:01:36.068Z,9.8
2018-05-01T10:02:49.815Z,9.8
2018-05-01T10:03:56.078Z,9.8
2018-05-01T10:05:02.355Z,9.9
2018-05-01T10:06:05.015Z,9.9
2018-05-01T10:07:07.491Z,9.9
2018-05-01T10:08:26.066Z,9.9
2018-05-01T10:09:47.738Z,9.9
2018-05-01T10:11:02.162Z,9.9
2018-05-01T10:12:18.244Z,9.9
2018-05-01T10:13:33.265Z,9.9
2018-05-01T10:14:58.613Z,9.9
2018-05-01T10:16:19.764Z,9.8
2018-05-01T10:17:27.331Z,9.8
2018-05-01T10:18:30.074Z,9.8
2018-05-01T10:19:36.162Z,9.8
2018-05-01T10:20:42.206Z,9.9
2018-05-01T10:21:44.595Z,9.8
2018-05-01T10:22:47.543Z,9.8
2018-05-01T10:23:50.214Z,9.9
2018-05-01T10:24:52.588Z,9.8
2018-05-01T10:25:54.969Z,9.8
2018-05-01T10:26:57.635Z,9.8
2018-05-01T10:28:00.401Z,9.7
2018-05-01T10:29:02.778Z,9.8
2018-05-01T10:30:05.156Z,9.7
2018-05-01T10:31:07.543Z,9.7
2018-05-01T10:32:09.921Z,9.6
2018-05-01T10:33:12.317Z,9.7
2018-05-01T10:34:14.679Z,9.6
2018-05-01T10:35:17.067Z,9.6
2018-05-01T10:36:19.455Z,9.7
2018-05-01T10:37:21.829Z,9.6
2018-05-01T10:38:24.220Z,9.6
2018-05-01T10:39:26.591Z,9.6
2018-05-01T10:40:28.975Z,9.6
2018-05-01T10:41:31.745Z,9.6
2018-05-01T10:42:34.127Z,9.5
2018-05-01T10:43:36.787Z,9.5
2018-05-01T10:44:39.171Z,9.5
2018-05-01T10:45:41.621Z,9.5
2018-05-01T10:46:43.930Z,9.6
2018-05-01T10:47:46.312Z,9.6
2018-05-01T10:48:48.685Z,9.5
2018-05-01T10:49:51.076Z,9.5
2018-05-01T10:50:53.456Z,9.5
2018-05-01T10:51:55.839Z,9.6
2018-05-01T10:52:58.892Z,9.5
2018-05-01T10:54:01.579Z,9.5
2018-05-01T10:55:03.954Z,9.5
2018-05-01T10:56:06.333Z,9.5
2018-05-01T10:57:08.703Z,9.6
2018-05-01T10:58:11.467Z,9.6
2018-05-01T10:59:13.843Z,9.6
2018-05-01T11:00:16.225Z,9.6
2018-05-01T11:01:18.608Z,9.6
2018-05-01T11:02:20.984Z,9.6
2018-05-01T11:03:23.364Z,9.6
2018-05-01T11:04:26.033Z,9.6
2018-05-01T11:05:28.405Z,9.6
2018-05-01T11:06:31.070Z,9.6
2018-05-01T11:07:33.779Z,9.6
2018-05-01T11:08:36.155Z,9.7
2018-05-01T11:09:38.912Z,9.6
2018-05-01T11:10:41.575Z,9.6
2018-05-01T11:11:43.958Z,9.7
2018-05-01T11:12:46.928Z,9.7
2018-05-01T11:13:49.311Z,9.7
2018-05-01T11:14:51.682Z,9.8
2018-05-01T11:15:54.070Z,9.8
2018-05-01T11:16:56.458Z,9.8
2018-05-01T11:17:58.848Z,9.7
2018-05-01T11:19:01.224Z,9.8
2018-05-01T11:20:03.890Z,9.7
2018-05-01T11:21:06.277Z,9.8
2018-05-01T11:22:08.647Z,9.8
2018-05-01T11:23:11.030Z,9.8
2018-05-01T11:24:13.415Z,9.8
2018-05-01T11:25:15.784Z,9.8
2018-05-01T11:26:19.951Z,9.7
2018-05-01T11:27:23.509Z,9.7
2018-05-01T11:28:26.187Z,9.8
2018-05-01T11:29:28.557Z,9.8
2018-05-01T11:30:30.942Z,9.8
2018-05-01T11:31:33.311Z,9.8
2018-05-01T11:32:35.705Z,9.8
2018-05-01T11:33:38.090Z,9.7
2018-05-01T11:34:55.498Z,9.7
2018-05-01T11:35:57.872Z,9.8
2018-05-01T11:37:00.263Z,9.8
2018-05-01T11:38:02.921Z,9.8
2018-05-01T11:39:05.292Z,9.7
2018-05-01T11:40:07.669Z,9.7
2018-05-01T11:41:10.061Z,9.7
2018-05-01T11:42:12.423Z,9.7
2018-05-01T11:43:14.802Z,9.8
2018-05-01T11:44:17.178Z,9.7
2018-05-01T11:45:19.558Z,9.7
2018-05-01T11:46:22.009Z,9.7
2018-05-01T11:47:24.621Z,9.6
2018-05-01T11:48:27.261Z,9.6
2018-05-01T11:49:34.480Z,9.6
2018-05-01T11:50:38.055Z,9.6
2018-05-01T11:51:40.439Z,9.6
2018-05-01T11:52:43.095Z,9.5
2018-05-01T11:53:45.792Z,9.6
2018-05-01T11:54:48.144Z,9.5
2018-05-01T11:55:50.532Z,9.5
2018-05-01T11:56:52.910Z,9.5
2018-05-01T11:57:55.268Z,9.4
2018-05-01T11:58:57.649Z,9.5
2018-05-01T12:00:00.048Z,9.4
2018-05-01T12:01:02.996Z,9.4
2018-05-01T12:02:05.376Z,9.4
2018-05-01T12:03:07.755Z,9.5
2018-05-01T12:04:10.136Z,9.5
2018-05-01T12:05:12.795Z,9.5
2018-05-01T12:06:15.179Z,9.5
2018-05-01T12:07:17.849Z,9.4
2018-05-01T12:08:20.234Z,9.4
2018-05-01T12:09:22.621Z,9.4
2018-05-01T12:10:25.280Z,9.5
2018-05-01T12:11:27.665Z,9.4
2018-05-01T12:12:30.047Z,9.4
2018-05-01T12:13:32.420Z,9.4
2018-05-01T12:14:35.189Z,9.4
2018-05-01T12:15:37.561Z,9.4
2018-05-01T12:16:39.942Z,9.4
2018-05-01T12:17:42.321Z,9.4
2018-05-01T12:18:44.977Z,9.3
2018-05-01T12:19:47.638Z,9.3
2018-05-01T12:20:50.168Z,9.4
2018-05-01T12:21:52.634Z,9.4
2018-05-01T12:22:55.020Z,9.3
2018-05-01T12:23:57.392Z,9.4
2018-05-01T12:25:00.336Z,9.4
2018-05-01T12:26:02.992Z,9.4
2018-05-01T12:27:05.648Z,9.3
2018-05-01T12:28:08.025Z,9.3
2018-05-01T12:29:10.981Z,9.3
2018-05-01T12:30:13.695Z,9.4
2018-05-01T12:31:16.315Z,9.3
2018-05-01T12:32:18.689Z,9.4
2018-05-01T12:33:21.463Z,9.4
2018-05-01T12:34:23.839Z,9.4
2018-05-01T12:35:26.218Z,9.3
2018-05-01T12:36:29.385Z,9.3
2018-05-01T12:37:31.651Z,9.3
2018-05-01T12:38:34.304Z,9.3
2018-05-01T12:39:36.684Z,9.3
2018-05-01T12:40:39.392Z,9.3
2018-05-01T12:41:41.771Z,9.3
2018-05-01T12:42:44.749Z,9.3
2018-05-01T12:43:47.125Z,9.3
2018-05-01T12:44:49.784Z,9.3
2018-05-01T12:45:52.192Z,9.3
2018-05-01T12:46:54.575Z,9.3
2018-05-01T12:47:56.936Z,9.3
2018-05-01T12:48:59.334Z,9.3
2018-05-01T12:50:01.714Z,9.3
2018-05-01T12:51:04.415Z,9.3
2018-05-01T12:52:07.084Z,9.3
2018-05-01T12:53:09.469Z,9.3
2018-05-01T12:54:11.881Z,9.3
2018-05-01T12:55:14.554Z,9.3
2018-05-01T12:56:16.923Z,9.3
2018-05-01T12:57:19.429Z,9.3
2018-05-01T12:58:21.809Z,9.3
2018-05-01T12:59:24.306Z,9.3
2018-05-01T13:00:26.694Z,9.3
2018-05-01T13:01:29.087Z,9.3
2018-05-01T13:02:31.458Z,9.3
2018-05-01T13:03:34.125Z,9.3
2018-05-01T13:04:36.946Z,9.3
2018-05-01T13:05:39.330Z,9.2
2018-05-01T13:06:41.973Z,9.2
2018-05-01T13:07:44.353Z,9.2
2018-05-01T13:08:46.733Z,9.2
2018-05-01T13:10:19.496Z,9.2
2018-05-01T13:11:21.943Z,9.2
2018-05-01T13:12:24.416Z,9.1
2018-05-01T13:13:26.907Z,9.1
2018-05-01T13:14:29.335Z,9.1
2018-05-01T13:15:31.773Z,9.1
2018-05-01T13:16:34.220Z,9.1
2018-05-01T13:17:36.681Z,9.1
2018-05-01T13:18:39.135Z,9
2018-05-01T13:19:42.868Z,9.1
2018-05-01T13:20:45.625Z,9.1
2018-05-01T13:21:48.574Z,9.1
2018-05-01T13:22:51.842Z,9.1
2018-05-01T13:23:54.333Z,9.1
2018-05-01T13:24:57.390Z,9.1
2018-05-01T13:25:59.843Z,9.1
2018-05-01T13:27:02.428Z,9.1
2018-05-01T13:28:05.503Z,9.1
2018-05-01T13:29:08.059Z,9.1
2018-05-01T13:30:10.507Z,9.1
2018-05-01T13:31:13.243Z,9.1
2018-05-01T13:32:15.695Z,9.1
2018-05-01T13:33:18.129Z,9.1
2018-05-01T13:34:20.863Z,9.1
2018-05-01T13:35:23.303Z,9.2
2018-05-01T13:36:26.028Z,9.1
2018-05-01T13:37:28.493Z,9.2
2018-05-01T13:38:31.009Z,9.2
2018-05-01T13:39:33.442Z,9.2
2018-05-01T13:40:35.904Z,9.2
2018-05-01T13:41:38.331Z,9.2
2018-05-01T13:42:40.770Z,9.2
2018-05-01T13:43:43.211Z,9.3
2018-05-01T13:44:45.661Z,9.2
2018-05-01T13:45:48.101Z,9.3
2018-05-01T13:46:50.922Z,9.3
2018-05-01T13:47:53.358Z,9.3
2018-05-01T13:48:55.881Z,9.3
2018-05-01T13:49:58.350Z,9.3
2018-05-01T13:51:00.784Z,9.3
2018-05-01T13:52:03.513Z,9.3
2018-05-01T13:53:05.943Z,9.3
2018-05-01T13:54:08.383Z,9.3
2018-05-01T13:55:10.817Z,9.3
2018-05-01T13:56:13.535Z,9.3
2018-05-01T13:57:16.829Z,9.3
2018-05-01T13:58:19.886Z,9.3
2018-05-01T13:59:22.334Z,9.3
2018-05-01T14:00:24.780Z,9.4
2018-05-01T14:01:27.206Z,9.4
2018-05-01T14:02:29.651Z,9.4
2018-05-01T14:03:32.072Z,9.4
2018-05-01T14:04:34.960Z,9.4
2018-05-01T14:05:37.240Z,9.4
2018-05-01T14:06:39.966Z,9.5
2018-05-01T14:07:42.401Z,9.5
2018-05-01T14:08:44.851Z,9.6
2018-05-01T14:09:47.282Z,9.6
2018-05-01T14:10:49.721Z,9.7
2018-05-01T14:11:52.160Z,9.7
2018-05-01T14:12:54.617Z,9.8
2018-05-01T14:13:57.058Z,9.8
2018-05-01T14:14:59.509Z,9.9
2018-05-01T14:16:01.944Z,9.9
2018-05-01T14:17:04.979Z,9.9